createdAt,value
2022-09-03T00:03:41.985Z,7.88
2022-09-03T00:08:41.443Z,6.93
2022-09-03T00:13:38.810Z,6.03
2022-09-03T00:18:36.226Z,6.03
2022-09-03T00:23:32.791Z,5.30
2022-09-03T00:28:30.036Z,5.07
2022-09-03T00:33:31.410Z,7.60
2022-09-03T00:38:28.535Z,7.25
2022-09-03T00:43:36.872Z,5.03
2022-09-03T00:48:37.415Z,4.43
2022-09-03T00:53:41.141Z,5.07
2022-09-03T00:59:05.059Z,4.55
2022-09-03T01:04:09.114Z,5.88
2022-09-03T01:09:23.434Z,5.03
2022-09-03T01:14:37.139Z,6.22
2022-09-03T01:20:06.091Z,5.57
2022-09-03T01:25:17.869Z,5.32
2022-09-03T01:30:20.633Z,5.47
2022-09-03T01:35:29.539Z,7.93
2022-09-03T01:40:34.592Z,5.57
2022-09-03T01:46:04.091Z,5.65
2022-09-03T01:51:21.232Z,5.75
2022-09-03T01:56:35.688Z,5.70
2022-09-03T02:01:34.559Z,5.38
2022-09-03T02:06:30.125Z,6.47
2022-09-03T02:11:28.590Z,6.93
2022-09-03T02:16:25.562Z,5.88
2022-09-03T02:21:22.711Z,7.35
2022-09-03T02:26:20.713Z,6.63
2022-09-03T02:31:14.209Z,6.07
2022-09-03T02:36:10.138Z,7.05
2022-09-03T02:41:05.507Z,6.15
2022-09-03T02:46:04.841Z,5.43
2022-09-03T02:50:58.254Z,6.13
2022-09-03T02:55:51.927Z,6.07
2022-09-03T03:00:49.577Z,4.97
2022-09-03T03:05:48.205Z,5.72
2022-09-03T03:10:42.347Z,7.13
2022-09-03T03:15:35.729Z,5.93
2022-09-03T03:25:46.160Z,6.47
2022-09-03T03:30:40.398Z,6.93
2022-09-03T03:35:35.283Z,6.10
2022-09-03T03:40:28.755Z,6.05
2022-09-03T03:45:22.217Z,7.28
2022-09-03T03:50:15.588Z,7.80
2022-09-03T03:55:11.078Z,6.60
2022-09-03T04:05:11.934Z,8.68
2022-09-03T04:10:06.763Z,8.23
2022-09-03T04:15:01.516Z,6.75
2022-09-03T04:19:54.747Z,7.55
2022-09-03T04:24:47.991Z,6.97
2022-09-03T04:29:41.279Z,7.13
2022-09-03T04:34:41.801Z,10.85
2022-09-03T04:39:36.411Z,8.10
2022-09-03T04:44:33.659Z,10.73
2022-09-03T04:49:27.497Z,8.27
2022-09-03T04:54:28.065Z,13.68
2022-09-03T04:59:24.716Z,6.00
2022-09-03T05:04:19.928Z,5.55
2022-09-03T05:09:13.680Z,7.43
2022-09-03T05:14:12.799Z,5.93
2022-09-03T05:19:08.265Z,7.97
2022-09-03T05:24:02.873Z,5.85
2022-09-03T05:28:57.684Z,7.30
2022-09-03T05:33:55.072Z,5.82
2022-09-03T05:38:56.578Z,7.53
2022-09-03T05:44:04.395Z,6.97
2022-09-03T05:49:06.269Z,9.57
2022-09-03T05:54:05.383Z,12.27
2022-09-03T05:59:11.057Z,13.33
2022-09-03T06:04:10.445Z,17.70
2022-09-03T06:09:05.798Z,15.73
2022-09-03T06:14:01.971Z,12.50
2022-09-03T06:18:56.571Z,7.38
2022-09-03T06:23:56.711Z,7.43
2022-09-03T06:28:55.820Z,8.15
2022-09-03T06:33:50.956Z,7.20
2022-09-03T06:38:45.022Z,9.98
2022-09-03T06:43:42.233Z,9.75
2022-09-03T06:48:36.909Z,7.88
2022-09-03T06:53:32.291Z,10.60
2022-09-03T06:58:26.208Z,8.18
2022-09-03T07:03:21.720Z,8.07
2022-09-03T07:08:14.956Z,9.07
2022-09-03T07:13:08.286Z,9.48
2022-09-03T07:18:01.978Z,7.30
2022-09-03T07:22:57.806Z,6.60
2022-09-03T07:27:51.348Z,8.57
2022-09-03T07:32:44.600Z,11.63
2022-09-03T07:37:40.312Z,9.10
2022-09-03T07:42:36.247Z,10.93
2022-09-03T07:47:32.740Z,11.10
2022-09-03T07:52:25.923Z,9.02
2022-09-03T07:57:19.736Z,8.05
2022-09-03T08:02:14.269Z,8.73
2022-09-03T08:07:07.525Z,12.35
2022-09-03T08:12:00.696Z,9.98
2022-09-03T08:16:54.038Z,12.93
2022-09-03T08:21:49.082Z,10.30
2022-09-03T08:26:50.410Z,8.75
2022-09-03T08:31:46.298Z,8.32
2022-09-03T08:36:41.633Z,7.80
2022-09-03T08:41:49.643Z,8.70
2022-09-03T08:46:54.361Z,9.55
2022-09-03T08:51:50.973Z,9.35
2022-09-03T08:56:47.623Z,7.47
2022-09-03T09:01:54.912Z,8.77
2022-09-03T09:06:56.848Z,8.68
2022-09-03T09:12:02.913Z,8.80
2022-09-03T09:17:15.783Z,9.75
2022-09-03T09:22:15.221Z,6.97
2022-09-03T09:27:15.935Z,7.72
2022-09-03T09:32:12.885Z,7.00
2022-09-03T09:37:09.352Z,10.85
2022-09-03T09:42:11.111Z,7.50
2022-09-03T09:47:10.542Z,8.23
2022-09-03T09:52:06.936Z,6.43
2022-09-03T09:57:02.527Z,6.90
2022-09-03T10:02:13.741Z,7.07
2022-09-03T10:07:24.654Z,8.25
2022-09-03T10:12:25.802Z,8.75
2022-09-03T10:17:36.994Z,6.55
2022-09-03T10:22:56.494Z,6.20
2022-09-03T10:27:59.822Z,6.10
2022-09-03T10:33:06.576Z,9.30
2022-09-03T10:38:11.853Z,6.55
2022-09-03T10:43:35.442Z,8.68
2022-09-03T10:49:03.019Z,5.18
2022-09-03T10:54:15.100Z,8.50
2022-09-03T10:59:30.697Z,5.68
2022-09-03T11:04:36.313Z,7.63
2022-09-03T11:09:39.310Z,6.18
2022-09-03T11:14:38.034Z,6.60
2022-09-03T11:19:37.535Z,7.13
2022-09-03T11:24:34.616Z,7.40
2022-09-03T11:29:38.279Z,6.75
2022-09-03T11:34:34.803Z,5.25
2022-09-03T11:39:36.442Z,6.15
2022-09-03T11:44:37.938Z,5.43
2022-09-03T11:49:51.001Z,6.10
2022-09-03T11:54:46.276Z,6.88
2022-09-03T11:59:40.766Z,4.72
2022-09-03T12:04:42.184Z,6.18
2022-09-03T12:10:00.600Z,5.05
2022-09-03T12:15:03.830Z,4.32
2022-09-03T12:19:59.180Z,6.40
2022-09-03T12:24:53.964Z,8.15
2022-09-03T12:30:00.156Z,5.15
2022-09-03T12:34:53.966Z,5.90
2022-09-03T12:40:09.732Z,6.53
2022-09-03T12:45:10.582Z,5.30
2022-09-03T12:50:10.963Z,4.78
2022-09-03T12:55:16.002Z,7.05
2022-09-03T13:00:12.019Z,6.07
2022-09-03T13:05:07.887Z,7.68
2022-09-03T13:10:08.220Z,5.85
2022-09-03T13:15:08.987Z,9.18
2022-09-03T13:20:19.849Z,6.75
2022-09-03T13:25:25.078Z,7.28
2022-09-03T13:30:23.192Z,4.50
2022-09-03T13:35:26.057Z,4.95
2022-09-03T13:40:27.525Z,6.45
2022-09-03T13:45:31.105Z,5.32
2022-09-03T13:50:28.409Z,8.60
2022-09-03T13:55:27.159Z,8.20
2022-09-03T14:00:29.290Z,6.13
2022-09-03T14:05:39.844Z,9.23
2022-09-03T14:10:45.770Z,7.38
2022-09-03T14:15:45.831Z,4.75
2022-09-03T14:20:45.375Z,6.60
2022-09-03T14:25:42.808Z,6.57
2022-09-03T14:30:44.976Z,11.10
2022-09-03T14:36:03.402Z,7.00
2022-09-03T14:41:07.145Z,7.43
2022-09-03T14:46:15.126Z,7.47
2022-09-03T14:51:24.605Z,7.10
2022-09-03T14:56:40.859Z,7.27
2022-09-03T15:01:39.435Z,6.38
2022-09-03T15:06:50.856Z,8.93
2022-09-03T15:11:54.113Z,7.35
2022-09-03T15:16:54.923Z,6.10
2022-09-03T15:22:01.510Z,6.93
2022-09-03T15:27:15.651Z,8.88
2022-09-03T15:32:20.020Z,8.93
2022-09-03T16:06:29.922Z,6.75
2022-09-03T16:12:47.146Z,7.55
2022-09-03T16:39:40.999Z,6.47
2022-09-03T16:46:35.511Z,9.07
2022-09-03T17:07:00.632Z,8.13
2022-09-03T17:12:48.989Z,9.13
2022-09-03T17:26:14.299Z,8.75
2022-09-03T17:59:40.307Z,8.90
2022-09-03T18:11:56.163Z,9.48
2022-09-03T18:25:11.708Z,10.27
2022-09-03T18:50:41.910Z,8.05
2022-09-03T18:56:39.113Z,8.35
2022-09-03T19:01:57.899Z,8.73
2022-09-03T19:55:18.787Z,12.07
2022-09-03T21:18:50.428Z,7.65
2022-09-03T21:38:13.465Z,8.18
2022-09-03T21:43:52.630Z,9.50
2022-09-03T21:49:18.255Z,9.18
2022-09-03T21:54:30.527Z,7.60
2022-09-03T21:59:49.120Z,10.60
2022-09-03T22:04:42.701Z,9.63
2022-09-03T22:10:06.115Z,7.68
2022-09-03T22:15:01.290Z,9.75
2022-09-03T22:19:55.174Z,8.32
2022-09-03T22:25:03.254Z,8.57
2022-09-03T22:30:20.290Z,8.85
2022-09-03T22:35:36.875Z,8.57
2022-09-03T22:40:40.589Z,9.65
2022-09-03T22:46:00.050Z,9.77
2022-09-03T22:51:01.649Z,9.20
2022-09-03T22:56:23.742Z,8.77
2022-09-03T23:01:22.585Z,12.45
2022-09-03T23:06:34.098Z,11.20
2022-09-03T23:11:44.079Z,10.85
2022-09-03T23:16:42.533Z,8.75
2022-09-03T23:21:41.191Z,9.20
2022-09-03T23:26:55.656Z,11.10
2022-09-03T23:32:22.210Z,10.55
2022-09-03T23:37:34.255Z,13.65
2022-09-03T23:42:55.718Z,11.02
2022-09-03T23:47:55.610Z,11.27
2022-09-03T23:53:28.444Z,11.25
2022-09-03T23:59:05.189Z,10.27
